Accueil
METAR-TAF:

METAR-TAF

Aéroports :

Aéroport de Venise-Marco-Polo

Venise, Italie

latitude: 45-30N, longitude: 012-20E, altitude: 2 m

Observation

Le bulletin a été fait il y a 38 minutes, à 07:20 UTC
Vent 2 kt de direction variable
Température 5°C
Humidité 81%
Pression 1026 hPa
Visibilité 10 km ou plus
Nuages fragmentés à une hauteur de 3500 ft

METAR: LIPZ 060720Z VRB02KT 9999 BKN035 05/02 Q1026 NOSIG

Heure: 08:58 (07:58 UTC)

Prévision

Le bulletin a été fait il y a 2 heures et 58 minutes, à 05:00 UTC
Prévision valable du 06 à 06 UTC au 07 à 12 UTC
Vent 6 kt de nord/nord-est
Visibilité 10 km ou plus
Quelques nuages à une hauteur de 4000 ft

TAF: LIPZ 060500Z 0606/0712 03006KT 9999 FEW040

Observations et prévisions météorologiques de plus de 4000 aéroports (messages METAR et TAF).

Les stations disponibles sont représentées par des disques jaunes et rouges sur la carte.

Passer la souris dessus pour voir le nom de la station.

Cliquer dessus pour voir les observations et prévisions météorologiques.

Pour changer de carte: cliquez sur les boutons verts avec une croix noire pour zoomer, sur le bouton vert avec un tiret pour effectuer un zoom arrière, ou sur les flèches vertes pour les cartes adjacentes.


METAR-TAF: